Time;durP1;ratioP1;P1;durP2;ratioP2;P2;SDS_P1;SDS_P2;PMS_P1;PMS_P2;Temp;Humidity;BMP_temperature;BMP_pressure;BME280_temperature;BME280_humidity;BME280_pressure;Samples;Min_cycle;Max_cycle;Signal;HPM_P1;HPM_P2
2022/03/30 00:01:49;;;;;;;17.38;5.60;;;6.60;99.90;;;;;;5057000;28;20881;-59
2022/03/30 00:04:14;;;;;;;16.85;6.28;;;6.60;99.90;;;;;;5051242;28;20035;-60
2022/03/30 00:06:40;;;;;;;14.55;6.43;;;6.70;99.90;;;;;;5056051;28;20397;-58
2022/03/30 00:09:06;;;;;;;19.13;6.25;;;6.70;99.90;;;;;;5055973;28;20032;-60
2022/03/30 00:11:31;;;;;;;14.68;5.20;;;6.80;99.90;;;;;;5045447;28;20059;-58
2022/03/30 00:13:57;;;;;;;25.33;7.45;;;7.00;99.90;;;;;;5055953;28;20681;-61
2022/03/30 00:16:24;;;;;;;17.92;6.45;;;6.90;99.90;;;;;;5061594;28;20044;-60
2022/03/30 00:18:49;;;;;;;28.85;7.22;;;6.90;99.90;;;;;;5058212;28;20028;-60
2022/03/30 00:21:16;;;;;;;20.45;6.93;;;6.80;99.90;;;;;;5041256;28;20029;-60
2022/03/30 00:23:42;;;;;;;19.63;6.55;;;6.80;99.90;;;;;;5052515;28;20556;-61
2022/03/30 00:26:07;;;;;;;12.45;5.43;;;6.80;99.90;;;;;;5048274;28;20035;-60
2022/03/30 00:28:33;;;;;;;17.13;5.53;;;6.80;99.90;;;;;;5057841;28;20031;-60
2022/03/30 00:30:59;;;;;;;13.88;4.88;;;6.80;99.90;;;;;;5056929;28;20055;-61
2022/03/30 00:33:25;;;;;;;10.57;3.75;;;6.70;99.90;;;;;;5057862;28;20444;-60
2022/03/30 00:35:50;;;;;;;16.55;5.75;;;6.80;99.90;;;;;;5063690;28;20471;-59
2022/03/30 00:38:16;;;;;;;23.58;6.10;;;6.90;99.90;;;;;;5057637;28;20079;-60
2022/03/30 00:40:42;;;;;;;15.60;6.10;;;6.80;99.90;;;;;;5057679;28;20032;-60
2022/03/30 00:43:08;;;;;;;17.58;5.30;;;6.70;99.90;;;;;;5056673;28;20120;-60
2022/03/30 00:45:33;;;;;;;15.25;5.57;;;6.70;99.90;;;;;;5059830;28;20086;-60
2022/03/30 00:47:59;;;;;;;16.40;5.20;;;6.70;99.90;;;;;;5044122;28;20028;-60
2022/03/30 00:50:24;;;;;;;17.02;5.93;;;6.70;99.90;;;;;;5058750;28;20033;-59
2022/03/30 00:52:59;;;;;;;14.07;5.57;;;6.70;99.90;;;;;;5061147;28;20442;-61
2022/03/30 00:55:25;;;;;;;13.45;5.00;;;6.60;99.90;;;;;;5056047;28;20049;-60
2022/03/30 00:57:57;;;;;;;14.77;4.53;;;6.70;99.90;;;;;;5059659;28;20024;-60
2022/03/30 01:00:23;;;;;;;14.73;5.30;;;6.50;99.90;;;;;;5059948;28;20675;-59
2022/03/30 01:02:50;;;;;;;18.55;6.47;;;6.40;99.90;;;;;;5055264;28;20016;-59
2022/03/30 01:05:16;;;;;;;25.77;5.75;;;6.30;99.90;;;;;;5060636;28;20021;-60
2022/03/30 01:07:42;;;;;;;13.25;4.85;;;6.30;99.90;;;;;;5046070;28;20052;-58
2022/03/30 01:10:09;;;;;;;14.63;5.63;;;6.40;99.90;;;;;;5044632;28;20534;-58
2022/03/30 01:12:38;;;;;;;13.57;5.75;;;6.30;99.90;;;;;;5055914;28;20051;-59
2022/03/30 01:15:06;;;;;;;12.73;5.43;;;6.30;99.90;;;;;;5057166;28;20057;-59
2022/03/30 01:17:31;;;;;;;15.05;6.38;;;6.20;99.90;;;;;;5058941;28;20043;-60
2022/03/30 01:19:57;;;;;;;15.73;5.70;;;6.20;99.90;;;;;;5060173;28;20683;-59
2022/03/30 01:22:23;;;;;;;22.65;7.00;;;6.00;99.90;;;;;;5056438;28;20036;-60
2022/03/30 01:24:49;;;;;;;24.08;5.95;;;6.20;99.90;;;;;;5055388;28;20028;-60
2022/03/30 01:27:15;;;;;;;12.02;5.47;;;6.10;99.90;;;;;;5054933;28;20052;-60
2022/03/30 01:32:26;;;;;;;15.30;4.90;;;6.00;99.90;;;;;;5049961;28;20127;-58
2022/03/30 01:34:56;;;;;;;21.13;5.53;;;6.00;99.90;;;;;;5056937;28;20025;-60
2022/03/30 01:37:23;;;;;;;17.27;5.95;;;5.90;99.90;;;;;;5054958;28;20024;-60
2022/03/30 01:39:49;;;;;;;16.80;5.57;;;5.90;99.90;;;;;;5058732;28;20042;-60
2022/03/30 01:42:15;;;;;;;21.70;6.00;;;5.80;99.90;;;;;;5054769;28;20016;-60
2022/03/30 01:44:41;;;;;;;19.67;7.25;;;5.70;99.90;;;;;;5054559;28;20029;-60
2022/03/30 01:47:10;;;;;;;14.13;5.93;;;5.70;99.90;;;;;;5044877;28;20028;-60
2022/03/30 01:49:36;;;;;;;14.82;5.28;;;5.60;99.90;;;;;;5062917;28;20024;-60
2022/03/30 01:52:02;;;;;;;16.80;4.75;;;5.50;99.90;;;;;;5053504;28;20044;-60
2022/03/30 01:54:28;;;;;;;10.98;5.75;;;5.60;99.90;;;;;;5055090;28;20036;-60
2022/03/30 01:56:55;;;;;;;24.40;5.88;;;5.50;99.90;;;;;;5056082;28;20782;-60
2022/03/30 01:59:22;;;;;;;25.42;6.70;;;5.50;99.90;;;;;;5058059;28;20031;-60
2022/03/30 02:01:48;;;;;;;13.88;5.88;;;5.40;99.90;;;;;;5056755;28;20091;-60
2022/03/30 02:04:14;;;;;;;12.52;4.55;;;5.30;99.90;;;;;;5053330;28;20033;-60
2022/03/30 02:06:41;;;;;;;19.80;5.40;;;5.40;99.90;;;;;;5060684;28;20087;-59
2022/03/30 02:09:07;;;;;;;12.85;5.05;;;5.40;99.90;;;;;;5056553;28;20040;-60
2022/03/30 02:11:34;;;;;;;16.17;5.28;;;5.40;99.90;;;;;;5055964;28;20033;-60
2022/03/30 02:14:00;;;;;;;11.63;4.70;;;5.40;99.90;;;;;;5054124;28;20112;-61
2022/03/30 02:16:27;;;;;;;19.67;5.18;;;5.10;99.90;;;;;;5054694;28;20450;-61
2022/03/30 02:18:52;;;;;;;19.60;5.40;;;5.20;99.90;;;;;;5042685;28;20075;-59
2022/03/30 02:21:18;;;;;;;11.32;4.63;;;5.00;99.90;;;;;;5050617;28;20064;-60
2022/03/30 02:23:45;;;;;;;13.93;5.28;;;5.00;99.90;;;;;;5048858;28;20499;-60
2022/03/30 02:26:15;;;;;;;21.45;4.95;;;4.90;99.90;;;;;;5056301;28;20071;-60
2022/03/30 02:28:43;;;;;;;24.52;6.57;;;4.90;99.90;;;;;;5057832;28;20022;-60
2022/03/30 02:31:10;;;;;;;21.45;5.88;;;4.80;99.90;;;;;;5058365;28;20129;-60
2022/03/30 02:33:36;;;;;;;14.02;4.45;;;4.70;99.90;;;;;;5058657;28;20068;-60
2022/03/30 02:36:01;;;;;;;12.52;4.38;;;4.60;99.90;;;;;;5055630;28;20463;-60
2022/03/30 02:38:27;;;;;;;17.17;5.47;;;4.60;99.90;;;;;;5056737;28;20127;-60
2022/03/30 02:40:53;;;;;;;17.05;4.82;;;4.60;99.90;;;;;;5057128;28;20043;-60
2022/03/30 02:43:19;;;;;;;11.05;5.40;;;4.60;99.90;;;;;;5039461;28;20455;-61
2022/03/30 02:45:46;;;;;;;20.65;7.00;;;4.50;99.90;;;;;;5038617;28;20070;-61
2022/03/30 02:48:18;;;;;;;12.48;5.40;;;4.50;99.90;;;;;;5061068;28;20111;-60
2022/03/30 02:50:47;;;;;;;14.82;4.72;;;4.50;99.90;;;;;;5039453;28;20455;-60
2022/03/30 02:53:14;;;;;;;11.85;4.97;;;4.40;99.90;;;;;;5056803;28;20452;-60
2022/03/30 02:55:40;;;;;;;14.88;6.47;;;4.40;99.90;;;;;;5051862;28;20057;-60
2022/03/30 02:58:06;;;;;;;22.98;5.95;;;4.40;99.90;;;;;;5054541;28;20060;-60
2022/03/30 03:00:32;;;;;;;28.25;7.95;;;4.40;99.90;;;;;;5053367;28;20029;-60
2022/03/30 03:03:00;;;;;;;19.00;6.05;;;4.30;99.90;;;;;;5059036;28;20086;-60
2022/03/30 03:05:31;;;;;;;14.10;4.55;;;4.40;99.90;;;;;;5059687;28;20033;-60
2022/03/30 03:08:01;;;;;;;13.55;5.32;;;4.40;99.90;;;;;;5060366;28;20534;-60
2022/03/30 03:10:27;;;;;;;13.40;6.07;;;4.40;99.90;;;;;;5064031;28;20024;-60
2022/03/30 03:12:53;;;;;;;16.60;5.53;;;4.20;99.90;;;;;;5064876;28;20643;-60
2022/03/30 03:15:19;;;;;;;12.73;4.45;;;4.20;99.90;;;;;;5062625;28;20446;-60
2022/03/30 03:17:45;;;;;;;9.32;3.42;;;4.10;99.90;;;;;;5055155;28;20040;-60
2022/03/30 03:20:13;;;;;;;8.90;4.35;;;4.10;99.90;;;;;;5061299;28;20399;-60
2022/03/30 03:22:40;;;;;;;9.88;4.07;;;4.10;99.90;;;;;;5054678;28;20021;-60
2022/03/30 03:25:07;;;;;;;13.98;5.00;;;4.10;99.90;;;;;;5056567;28;20121;-60
2022/03/30 03:27:33;;;;;;;19.55;6.32;;;4.20;99.90;;;;;;5040016;28;20071;-60
2022/03/30 03:29:59;;;;;;;26.83;6.35;;;4.10;99.90;;;;;;5060838;28;20043;-60
2022/03/30 03:32:25;;;;;;;17.40;6.65;;;4.00;99.90;;;;;;5059889;28;20043;-60
2022/03/30 03:34:51;;;;;;;13.02;4.32;;;3.90;99.90;;;;;;5063508;28;20025;-60
2022/03/30 03:37:16;;;;;;;11.60;5.32;;;3.90;99.90;;;;;;5048992;28;20082;-60
2022/03/30 03:39:43;;;;;;;16.67;7.30;;;3.90;99.90;;;;;;5059341;28;20052;-60
2022/03/30 03:42:08;;;;;;;12.63;5.25;;;3.90;99.90;;;;;;5058654;28;20031;-60
2022/03/30 03:44:34;;;;;;;18.73;6.05;;;3.80;99.90;;;;;;5062251;28;20571;-60
2022/03/30 03:47:00;;;;;;;14.20;5.10;;;3.80;99.90;;;;;;5060808;28;20035;-60
2022/03/30 03:49:26;;;;;;;15.20;5.72;;;3.70;99.90;;;;;;5046760;28;20035;-60
2022/03/30 03:51:52;;;;;;;21.58;8.23;;;3.70;99.90;;;;;;5062405;28;20036;-60
2022/03/30 03:54:17;;;;;;;16.15;5.82;;;3.70;99.90;;;;;;5061905;28;20044;-60
2022/03/30 03:56:43;;;;;;;16.70;6.30;;;3.70;99.90;;;;;;5044147;28;20471;-60
2022/03/30 03:59:10;;;;;;;21.88;5.13;;;3.80;99.90;;;;;;5053024;28;20504;-60
2022/03/30 04:01:36;;;;;;;17.88;4.53;;;3.70;99.90;;;;;;5059904;28;20548;-60
2022/03/30 04:04:02;;;;;;;25.52;5.30;;;3.70;99.90;;;;;;5061803;28;20090;-60
2022/03/30 04:06:29;;;;;;;15.82;4.18;;;3.70;99.90;;;;;;5060743;28;20033;-60
2022/03/30 04:08:55;;;;;;;14.30;4.25;;;3.60;99.90;;;;;;5060645;28;20033;-60
2022/03/30 04:11:20;;;;;;;10.68;4.53;;;3.60;99.90;;;;;;5045324;28;20078;-60
2022/03/30 04:13:46;;;;;;;11.05;4.05;;;3.60;99.90;;;;;;5061800;28;20012;-60
2022/03/30 04:16:12;;;;;;;16.77;6.25;;;3.60;99.90;;;;;;5053038;28;20025;-60
2022/03/30 04:18:38;;;;;;;17.15;4.63;;;3.50;99.90;;;;;;5043016;28;20029;-60
2022/03/30 04:21:03;;;;;;;37.15;7.40;;;3.50;99.90;;;;;;5059134;28;20028;-60
2022/03/30 04:23:29;;;;;;;12.00;3.92;;;3.40;99.90;;;;;;5060017;28;20028;-60
2022/03/30 04:25:54;;;;;;;14.75;5.75;;;3.50;99.90;;;;;;5056467;28;20403;-60
2022/03/30 04:28:20;;;;;;;13.70;6.82;;;3.40;99.90;;;;;;5057388;28;20032;-60
2022/03/30 04:30:45;;;;;;;20.73;7.80;;;3.50;99.90;;;;;;5054516;28;20032;-60
2022/03/30 04:33:11;;;;;;;10.18;5.25;;;3.50;99.90;;;;;;5059941;28;20039;-60
2022/03/30 04:35:37;;;;;;;13.73;5.28;;;3.50;99.90;;;;;;5061599;28;20407;-60
2022/03/30 04:38:03;;;;;;;24.63;6.05;;;3.40;99.90;;;;;;5048358;28;20134;-60
2022/03/30 04:40:29;;;;;;;18.52;5.38;;;3.40;99.90;;;;;;5073401;28;20039;-60
2022/03/30 04:42:55;;;;;;;13.48;3.95;;;3.30;99.90;;;;;;5081679;28;20024;-60
2022/03/30 04:45:22;;;;;;;16.35;6.93;;;3.20;99.90;;;;;;5081063;28;20471;-61
2022/03/30 04:47:48;;;;;;;14.20;4.38;;;3.20;99.90;;;;;;5082564;28;20667;-61
2022/03/30 04:50:14;;;;;;;7.75;3.38;;;3.10;99.90;;;;;;5063817;28;20127;-61
2022/03/30 04:52:41;;;;;;;15.23;5.53;;;3.00;99.90;;;;;;5085883;28;20122;-61
2022/03/30 04:55:08;;;;;;;8.73;4.75;;;3.00;99.90;;;;;;5081855;28;20036;-61
2022/03/30 04:57:33;;;;;;;15.75;5.90;;;3.00;99.90;;;;;;5081234;28;20098;-61
2022/03/30 04:59:59;;;;;;;13.52;5.32;;;2.80;99.90;;;;;;5061374;28;20438;-60
2022/03/30 05:02:26;;;;;;;12.25;4.50;;;2.80;99.90;;;;;;5078870;28;20036;-61
2022/03/30 05:04:52;;;;;;;8.90;4.15;;;2.70;99.90;;;;;;5076400;28;20021;-61
2022/03/30 05:07:19;;;;;;;11.45;5.03;;;2.90;99.90;;;;;;5074603;28;20028;-61
2022/03/30 05:09:44;;;;;;;11.52;5.15;;;2.90;99.90;;;;;;5077051;28;20126;-61
2022/03/30 05:12:10;;;;;;;9.73;4.43;;;2.80;99.90;;;;;;5061569;28;20122;-61
2022/03/30 05:14:36;;;;;;;16.55;5.40;;;2.60;99.90;;;;;;5075130;28;20028;-61
2022/03/30 05:17:02;;;;;;;15.70;5.57;;;2.50;99.90;;;;;;5072994;28;20037;-61
2022/03/30 05:19:28;;;;;;;18.67;5.30;;;2.40;99.90;;;;;;5075155;28;20040;-61
2022/03/30 05:21:54;;;;;;;18.05;5.20;;;2.20;99.90;;;;;;5070985;28;20534;-61
2022/03/30 05:24:20;;;;;;;21.88;6.35;;;2.30;99.90;;;;;;5076898;28;20033;-61
2022/03/30 05:26:49;;;;;;;12.10;5.57;;;2.30;99.90;;;;;;5070961;28;20033;-60
2022/03/30 05:29:14;;;;;;;10.60;3.78;;;2.30;99.90;;;;;;5080997;28;20067;-60
2022/03/30 05:31:40;;;;;;;23.02;4.85;;;2.20;99.90;;;;;;5075337;28;20484;-61
2022/03/30 05:34:05;;;;;;;11.85;3.92;;;2.20;99.90;;;;;;5075937;28;20043;-61
2022/03/30 05:36:31;;;;;;;17.45;5.78;;;2.00;99.90;;;;;;5080405;28;20403;-61
2022/03/30 05:38:56;;;;;;;15.48;5.30;;;2.00;99.90;;;;;;5068876;28;20048;-61
2022/03/30 05:41:22;;;;;;;16.98;5.07;;;2.00;99.90;;;;;;5060202;28;20043;-60
2022/03/30 05:43:48;;;;;;;15.15;4.95;;;2.00;99.90;;;;;;5057487;28;20452;-61
2022/03/30 05:46:13;;;;;;;15.35;5.18;;;2.00;99.90;;;;;;5039546;28;20473;-61
2022/03/30 05:48:39;;;;;;;14.65;4.97;;;2.00;99.90;;;;;;5038481;28;20063;-61
2022/03/30 05:51:05;;;;;;;14.30;4.65;;;2.10;99.90;;;;;;5054272;28;20368;-61
2022/03/30 05:53:31;;;;;;;8.75;4.95;;;2.30;99.90;;;;;;5054645;28;20859;-60
2022/03/30 05:55:56;;;;;;;26.10;5.18;;;2.20;99.90;;;;;;5055224;28;20056;-60
2022/03/30 05:58:22;;;;;;;10.23;4.60;;;2.30;99.90;;;;;;5059955;28;20061;-60
2022/03/30 06:00:48;;;;;;;12.02;4.03;;;2.30;99.90;;;;;;5055628;28;20119;-61
2022/03/30 06:03:14;;;;;;;10.00;4.32;;;2.30;99.90;;;;;;5060768;28;20436;-61
2022/03/30 06:05:40;;;;;;;13.25;6.03;;;2.30;99.90;;;;;;5039005;28;20029;-60
2022/03/30 06:08:07;;;;;;;14.63;5.97;;;2.40;99.90;;;;;;5055154;28;20072;-60
2022/03/30 06:10:33;;;;;;;14.38;5.65;;;2.50;99.90;;;;;;5054518;28;20064;-60
2022/03/30 06:12:59;;;;;;;16.05;6.82;;;2.60;99.90;;;;;;5061430;28;20033;-61
2022/03/30 06:15:25;;;;;;;12.90;4.93;;;2.60;99.90;;;;;;5042012;28;20036;-60
2022/03/30 06:17:51;;;;;;;21.70;6.35;;;2.70;99.90;;;;;;5056769;28;20036;-60
2022/03/30 06:20:17;;;;;;;16.33;5.53;;;2.80;99.90;;;;;;5056641;28;20578;-60
2022/03/30 06:22:43;;;;;;;14.07;5.10;;;2.80;99.90;;;;;;5055351;28;20032;-61
2022/03/30 06:25:09;;;;;;;14.20;5.25;;;2.90;99.90;;;;;;5058077;28;20517;-60
2022/03/30 06:27:36;;;;;;;24.10;5.95;;;2.90;99.90;;;;;;5038675;28;20175;-60
2022/03/30 06:30:04;;;;;;;10.23;3.80;;;2.90;99.90;;;;;;5040972;28;20029;-60
2022/03/30 06:32:30;;;;;;;12.13;4.60;;;2.80;99.90;;;;;;5052245;28;20021;-61
2022/03/30 06:34:56;;;;;;;17.35;5.65;;;3.00;99.90;;;;;;5048376;28;20705;-60
2022/03/30 06:37:21;;;;;;;22.52;8.43;;;3.00;99.90;;;;;;5043564;28;20051;-61
2022/03/30 06:39:48;;;;;;;14.95;5.63;;;3.20;99.90;;;;;;5058136;28;20112;-60
2022/03/30 06:42:14;;;;;;;8.68;3.50;;;3.40;99.90;;;;;;5055633;28;20021;-60
2022/03/30 06:44:39;;;;;;;12.48;5.15;;;3.60;99.90;;;;;;5058525;28;20025;-61
2022/03/30 06:47:05;;;;;;;32.40;7.13;;;3.90;99.90;;;;;;5037846;28;20044;-60
2022/03/30 06:49:31;;;;;;;24.52;6.40;;;3.90;99.90;;;;;;5059171;28;20155;-60
2022/03/30 06:51:56;;;;;;;11.27;5.88;;;4.00;99.90;;;;;;5039624;28;20071;-61
2022/03/30 06:54:22;;;;;;;12.45;5.72;;;4.20;99.90;;;;;;5055982;28;20662;-61
2022/03/30 06:56:48;;;;;;;19.05;6.30;;;4.30;99.90;;;;;;5060231;28;20029;-61
2022/03/30 06:59:13;;;;;;;16.33;6.35;;;4.10;99.90;;;;;;5059692;28;20054;-61
2022/03/30 07:01:39;;;;;;;15.55;6.00;;;4.20;99.90;;;;;;5055189;28;20029;-61
2022/03/30 07:04:05;;;;;;;17.85;4.97;;;4.10;99.90;;;;;;5053203;28;20035;-62
2022/03/30 07:06:31;;;;;;;11.93;4.53;;;4.30;99.90;;;;;;5042228;28;20635;-61
2022/03/30 07:11:41;;;;;;;14.85;5.22;;;4.40;99.90;;;;;;5053236;28;20102;-61
2022/03/30 07:14:06;;;;;;;25.58;7.82;;;4.50;99.90;;;;;;5054331;28;20404;-61
2022/03/30 07:16:32;;;;;;;11.98;4.60;;;4.60;99.90;;;;;;5033079;28;20028;-61
2022/03/30 07:18:58;;;;;;;21.77;6.63;;;4.60;99.90;;;;;;5037710;28;20408;-60
2022/03/30 07:21:23;;;;;;;16.02;5.78;;;4.70;99.90;;;;;;5061524;28;20033;-60
2022/03/30 07:23:49;;;;;;;16.23;6.40;;;4.90;99.90;;;;;;5051368;28;20063;-61
2022/03/30 07:26:14;;;;;;;11.27;6.03;;;4.90;99.90;;;;;;5056425;28;20020;-61
2022/03/30 07:28:40;;;;;;;17.05;5.57;;;4.90;99.90;;;;;;5053375;28;20036;-60
2022/03/30 07:31:06;;;;;;;19.85;6.18;;;5.00;99.90;;;;;;5062162;28;20048;-61
2022/03/30 07:33:33;;;;;;;11.50;4.53;;;5.20;99.90;;;;;;5044939;28;20124;-60
2022/03/30 07:35:59;;;;;;;15.77;5.80;;;5.30;99.90;;;;;;5061300;28;20029;-60
2022/03/30 07:38:25;;;;;;;19.40;5.63;;;5.20;99.90;;;;;;5061102;28;20120;-60
2022/03/30 07:40:51;;;;;;;13.27;5.25;;;5.20;99.90;;;;;;5061476;28;20115;-61
2022/03/30 07:43:17;;;;;;;14.30;6.20;;;5.40;99.90;;;;;;5060190;28;20016;-60
2022/03/30 07:45:43;;;;;;;18.83;5.90;;;5.40;99.90;;;;;;5054649;28;20089;-60
2022/03/30 07:48:09;;;;;;;13.02;4.82;;;5.50;99.90;;;;;;5061014;28;20032;-60
2022/03/30 07:50:36;;;;;;;10.73;4.10;;;5.60;99.90;;;;;;5057862;28;20094;-60
2022/03/30 07:53:02;;;;;;;12.25;4.72;;;5.60;99.90;;;;;;5045535;28;20070;-60
2022/03/30 07:55:28;;;;;;;26.15;7.72;;;5.90;99.90;;;;;;5045732;28;20041;-60
2022/03/30 07:57:54;;;;;;;21.02;6.28;;;6.00;99.90;;;;;;5063131;28;20473;-60
2022/03/30 08:00:21;;;;;;;15.90;6.00;;;6.20;99.90;;;;;;5063105;28;20482;-60
2022/03/30 08:02:47;;;;;;;17.13;5.35;;;6.30;99.90;;;;;;5063346;28;20051;-60
2022/03/30 08:05:15;;;;;;;13.15;6.38;;;6.60;99.90;;;;;;5061662;28;20063;-60
2022/03/30 08:07:43;;;;;;;18.60;6.15;;;6.50;99.90;;;;;;5061389;28;20435;-60
2022/03/30 08:10:10;;;;;;;15.48;5.25;;;6.80;99.90;;;;;;5062800;28;20039;-60
2022/03/30 08:12:37;;;;;;;16.17;6.10;;;7.00;99.90;;;;;;5065365;28;20522;-60
2022/03/30 08:15:03;;;;;;;19.92;5.68;;;6.90;99.90;;;;;;5065716;28;20027;-60
2022/03/30 08:17:29;;;;;;;18.23;5.88;;;7.00;99.90;;;;;;5059921;28;20036;-61
2022/03/30 08:19:57;;;;;;;17.42;5.22;;;7.30;99.90;;;;;;5044613;28;20024;-60
2022/03/30 08:22:27;;;;;;;18.42;5.85;;;7.50;99.90;;;;;;5063964;28;20088;-61
2022/03/30 08:24:55;;;;;;;20.08;7.82;;;7.70;99.90;;;;;;5064125;28;20020;-60
2022/03/30 08:27:23;;;;;;;16.52;5.72;;;7.80;99.90;;;;;;5063568;28;20024;-60
2022/03/30 08:29:51;;;;;;;14.60;5.80;;;7.90;99.90;;;;;;5061930;28;20036;-60
2022/03/30 08:32:18;;;;;;;20.00;6.50;;;8.10;99.90;;;;;;5045052;28;20032;-60
2022/03/30 08:34:44;;;;;;;16.83;6.70;;;8.30;99.90;;;;;;5062965;28;20021;-60
2022/03/30 08:37:11;;;;;;;25.08;7.03;;;8.80;99.90;;;;;;5059847;28;20060;-60
2022/03/30 08:39:37;;;;;;;11.23;4.22;;;8.80;99.90;;;;;;5061098;28;20047;-60
2022/03/30 08:42:05;;;;;;;14.60;5.40;;;9.20;99.90;;;;;;5080479;28;20119;-60
2022/03/30 08:44:32;;;;;;;15.80;6.25;;;8.80;99.90;;;;;;5064296;28;20032;-60
2022/03/30 08:46:58;;;;;;;13.10;4.95;;;9.00;99.90;;;;;;5081993;28;20299;-60
2022/03/30 08:49:26;;;;;;;15.63;5.57;;;9.70;99.90;;;;;;5082800;28;20533;-60
2022/03/30 08:51:52;;;;;;;14.05;4.70;;;9.50;99.90;;;;;;5084268;28;20831;-60
2022/03/30 08:54:19;;;;;;;13.95;4.63;;;10.20;99.90;;;;;;5085509;28;20031;-59
2022/03/30 08:56:46;;;;;;;15.50;5.47;;;9.00;99.90;;;;;;5082999;28;20793;-60
2022/03/30 08:59:20;;;;;;;14.38;4.22;;;10.00;99.90;;;;;;5083004;28;20043;-60
2022/03/30 09:01:47;;;;;;;23.17;4.40;;;10.80;99.90;;;;;;5062389;28;20078;-60
2022/03/30 09:04:15;;;;;;;16.00;4.68;;;10.20;99.90;;;;;;5079037;28;20051;-60
2022/03/30 09:06:46;;;;;;;13.38;4.97;;;9.60;99.90;;;;;;5076841;28;20050;-60
2022/03/30 09:09:15;;;;;;;15.45;5.15;;;9.70;99.90;;;;;;5074330;28;20024;-60
2022/03/30 09:11:40;;;;;;;14.60;5.20;;;9.90;99.90;;;;;;5068990;28;20024;-60
2022/03/30 09:14:07;;;;;;;19.08;5.45;;;10.30;99.90;;;;;;5069853;28;20032;-60
2022/03/30 09:16:58;;;;;;;17.15;5.03;;;10.40;99.90;;;;;;5076534;28;20047;-60
2022/03/30 09:19:23;;;;;;;;;;;10.10;99.90;;;;;;5068109;28;20040;-61
2022/03/30 09:21:55;;;;;;;11.27;4.03;;;10.60;99.90;;;;;;5079277;28;19927;-60
2022/03/30 09:24:29;;;;;;;14.55;5.05;;;10.80;99.90;;;;;;5081128;28;20395;-61
2022/03/30 09:26:57;;;;;;;14.77;4.38;;;11.30;99.90;;;;;;5082378;28;20564;-60
2022/03/30 09:29:27;;;;;;;14.57;4.25;;;10.70;99.90;;;;;;5081894;28;20039;-60
2022/03/30 09:31:53;;;;;;;10.98;3.38;;;11.20;99.90;;;;;;5082969;28;20031;-60
2022/03/30 09:34:20;;;;;;;13.30;4.45;;;12.80;99.90;;;;;;5066343;28;20043;-60
2022/03/30 09:36:49;;;;;;;17.92;4.22;;;13.10;99.80;;;;;;5081989;28;20375;-61
2022/03/30 09:39:38;;;;;;;13.88;4.38;;;11.70;99.90;;;;;;5068325;28;20135;-60
2022/03/30 09:42:07;;;;;;;13.82;3.80;;;11.20;99.90;;;;;;5044372;28;20442;-60
2022/03/30 09:44:47;;;;;;;12.40;3.43;;;12.00;99.90;;;;;;5061109;28;20466;-60
2022/03/30 09:47:13;;;;;;;12.35;3.80;;;12.00;99.90;;;;;;5059596;28;20024;-61
2022/03/30 09:49:53;;;;;;;15.32;4.40;;;12.80;99.90;;;;;;5061922;28;20101;-60
2022/03/30 09:52:30;;;;;;;13.10;4.25;;;12.00;99.90;;;;;;5060687;28;20032;-61
2022/03/30 09:54:59;;;;;;;13.52;5.05;;;12.50;99.90;;;;;;5060446;28;20047;-60
2022/03/30 09:57:25;;;;;;;14.80;4.20;;;12.70;99.90;;;;;;5061084;28;20039;-60
2022/03/30 10:00:10;;;;;;;16.38;4.55;;;11.40;99.90;;;;;;5061445;28;20038;-60
2022/03/30 10:02:40;;;;;;;17.30;4.43;;;12.30;99.90;;;;;;5060906;28;20028;-60
2022/03/30 10:05:09;;;;;;;15.13;4.90;;;11.90;99.90;;;;;;5062216;28;21800;-60
2022/03/30 10:07:34;;;;;;;10.75;4.15;;;11.30;99.90;;;;;;5061628;28;20070;-60
2022/03/30 10:10:02;;;;;;;16.55;4.63;;;13.10;99.90;;;;;;5060128;28;20036;-60
2022/03/30 10:12:28;;;;;;;14.77;3.85;;;14.10;98.10;;;;;;5059830;28;20078;-60
2022/03/30 10:14:55;;;;;;;14.40;4.55;;;13.10;98.70;;;;;;5060061;28;20016;-60
2022/03/30 10:17:22;;;;;;;17.50;5.07;;;13.40;98.70;;;;;;5058372;28;20092;-60
2022/03/30 10:19:49;;;;;;;14.57;4.68;;;13.50;98.80;;;;;;5058870;28;20522;-60
2022/03/30 10:22:47;;;;;;;16.92;5.90;;;12.30;99.30;;;;;;5060934;28;20502;-60
2022/03/30 10:26:11;;;;;;;11.65;4.45;;;12.60;99.40;;;;;;5061162;28;20102;-60
2022/03/30 10:28:40;;;;;;;13.60;4.75;;;13.50;98.50;;;;;;4949836;28;20133;-60
2022/03/30 10:31:06;;;;;;;12.88;4.38;;;12.70;99.80;;;;;;4951512;28;20042;-60
2022/03/30 10:33:41;;;;;;;14.10;3.88;;;13.30;99.40;;;;;;4949723;28;20086;-61
2022/03/30 10:36:39;;;;;;;13.30;3.53;;;13.50;98.00;;;;;;4950528;28;20086;-60
2022/03/30 10:39:16;;;;;;;16.20;4.70;;;13.00;98.20;;;;;;4940648;28;20062;-60
2022/03/30 10:41:52;;;;;;;17.90;4.95;;;13.70;97.20;;;;;;4957717;28;20050;-61
2022/03/30 10:44:35;;;;;;;20.40;4.65;;;13.10;97.60;;;;;;4967543;28;20065;-60
2022/03/30 10:47:21;;;;;;;13.68;3.88;;;13.10;97.60;;;;;;4945126;28;20178;-60
2022/03/30 10:49:52;;;;;;;13.98;4.45;;;13.90;96.50;;;;;;4938298;28;20070;-60
2022/03/30 10:52:24;;;;;;;12.98;3.70;;;12.90;96.60;;;;;;4952535;28;20043;-60
2022/03/30 10:54:55;;;;;;;10.85;3.42;;;13.00;96.40;;;;;;4957275;28;20032;-60
2022/03/30 10:57:49;;;;;;;13.20;3.67;;;14.10;96.00;;;;;;4958576;28;20539;-60
2022/03/30 11:00:29;;;;;;;14.57;3.40;;;13.50;96.70;;;;;;5040716;28;20040;-61
2022/03/30 11:03:21;;;;;;;11.63;3.28;;;13.10;95.40;;;;;;5050796;28;20382;-60
2022/03/30 11:06:00;;;;;;;13.65;3.10;;;15.10;95.00;;;;;;5046823;28;20066;-61
2022/03/30 11:08:32;;;;;;;8.93;3.00;;;15.00;92.50;;;;;;5053551;28;20029;-61
2022/03/30 11:11:00;;;;;;;12.13;3.58;;;14.80;93.30;;;;;;5053118;28;20044;-60
2022/03/30 11:13:27;;;;;;;9.68;2.97;;;15.10;92.50;;;;;;5054829;28;20121;-61
2022/03/30 11:15:59;;;;;;;12.45;3.40;;;14.40;93.90;;;;;;5040634;28;20021;-60
2022/03/30 11:18:26;;;;;;;10.73;3.30;;;15.00;92.60;;;;;;5047065;28;20056;-60
2022/03/30 11:21:15;;;;;;;11.88;3.55;;;15.60;92.20;;;;;;5044549;28;20029;-60
2022/03/30 11:24:02;;;;;;;9.30;3.70;;;16.40;91.30;;;;;;5045721;28;20105;-60
2022/03/30 11:27:00;;;;;;;13.13;3.33;;;15.70;90.50;;;;;;5059944;28;20022;-60
2022/03/30 11:29:49;;;;;;;13.80;3.70;;;15.80;90.40;;;;;;5023497;28;20033;-60
2022/03/30 11:32:24;;;;;;;13.07;3.87;;;15.10;90.40;;;;;;5057435;28;20369;-61
2022/03/30 11:34:52;;;;;;;9.48;3.90;;;15.70;90.40;;;;;;5057952;28;20102;-60
2022/03/30 11:37:39;;;;;;;12.32;3.70;;;14.40;91.10;;;;;;5062305;28;20078;-61
2022/03/30 11:40:19;;;;;;;13.27;4.28;;;14.00;91.60;;;;;;5058687;28;20063;-61
2022/03/30 11:42:53;;;;;;;9.48;2.97;;;14.10;91.90;;;;;;5061656;28;20068;-60
2022/03/30 11:45:22;;;;;;;14.57;4.13;;;16.70;91.40;;;;;;5062688;28;20042;-60
2022/03/30 11:47:53;;;;;;;12.48;3.85;;;14.80;91.10;;;;;;5060183;28;20052;-60
2022/03/30 11:50:34;;;;;;;11.80;3.90;;;15.40;90.90;;;;;;5062699;28;20062;-60
2022/03/30 11:53:06;;;;;;;13.77;3.67;;;16.10;90.50;;;;;;5062517;28;20475;-60
2022/03/30 11:55:38;;;;;;;11.32;4.40;;;17.00;88.50;;;;;;5061182;28;20032;-60
2022/03/30 11:58:04;;;;;;;10.38;3.85;;;15.40;90.40;;;;;;5043010;28;20024;-60
2022/03/30 12:00:31;;;;;;;13.38;4.28;;;16.20;88.20;;;;;;5062337;28;20028;-60
2022/03/30 12:02:59;;;;;;;15.63;6.28;;;17.00;85.60;;;;;;5061502;28;20095;-60
2022/03/30 12:05:25;;;;;;;13.68;4.65;;;15.80;85.80;;;;;;5063363;28;20597;-60
2022/03/30 12:07:57;;;;;;;12.15;4.68;;;15.20;90.10;;;;;;5044197;28;20086;-60
2022/03/30 12:10:33;;;;;;;10.40;4.05;;;16.50;87.00;;;;;;5061096;28;20028;-60
2022/03/30 12:13:00;;;;;;;15.35;3.90;;;16.50;86.50;;;;;;5063162;28;20044;-60
2022/03/30 12:15:27;;;;;;;11.88;4.10;;;16.40;87.10;;;;;;5063827;28;20036;-61
2022/03/30 12:17:57;;;;;;;11.98;4.75;;;15.50;87.00;;;;;;5059292;28;20601;-60
2022/03/30 12:20:25;;;;;;;12.25;4.82;;;15.00;88.70;;;;;;5062051;28;20539;-60
2022/03/30 12:22:59;;;;;;;12.13;4.68;;;14.80;89.80;;;;;;5046573;28;20392;-60
2022/03/30 12:25:28;;;;;;;15.07;5.43;;;18.40;85.20;;;;;;5058351;28;20157;-60
2022/03/30 12:27:54;;;;;;;19.42;6.25;;;15.50;86.90;;;;;;5061881;28;20551;-60
2022/03/30 12:30:20;;;;;;;14.75;6.05;;;15.20;86.40;;;;;;5062696;28;20476;-60
2022/03/30 12:32:47;;;;;;;18.75;5.28;;;14.10;88.90;;;;;;5060643;28;20044;-60
2022/03/30 12:35:16;;;;;;;13.85;5.32;;;14.10;90.20;;;;;;5059998;28;20099;-60
2022/03/30 12:37:45;;;;;;;12.30;4.63;;;14.30;91.00;;;;;;5059466;28;20033;-60
2022/03/30 12:40:14;;;;;;;15.77;6.60;;;15.70;88.20;;;;;;5061009;28;20072;-60
2022/03/30 12:42:41;;;;;;;12.80;4.70;;;14.90;87.90;;;;;;5056956;28;20033;-60
2022/03/30 12:45:12;;;;;;;10.55;4.45;;;15.60;89.50;;;;;;5055598;28;20100;-60
2022/03/30 12:47:45;;;;;;;14.02;5.28;;;19.70;83.50;;;;;;5061975;28;20016;-61
2022/03/30 12:50:19;;;;;;;13.32;5.45;;;18.80;77.80;;;;;;5041390;28;20062;-60
2022/03/30 12:52:49;;;;;;;18.23;6.28;;;16.50;80.00;;;;;;5060427;28;20507;-60
2022/03/30 12:55:27;;;;;;;12.68;4.05;;;15.50;84.10;;;;;;5058171;28;20036;-60
2022/03/30 12:57:55;;;;;;;17.67;5.65;;;15.70;87.90;;;;;;5060626;28;20052;-60